sensor_id;sensor_type;location;lat;lon;timestamp;P1;durP1;ratioP1;P2;durP2;ratioP2
85559;SDS011;76003;49.038;16.594;2024-03-02T00:01:40;25.85;;;17.05;;
85559;SDS011;76003;49.038;16.594;2024-03-02T00:04:06;27.92;;;18.70;;
85559;SDS011;76003;49.038;16.594;2024-03-02T00:06:53;30.90;;;19.10;;
85559;SDS011;76003;49.038;16.594;2024-03-02T00:09:22;28.63;;;18.90;;
85559;SDS011;76003;49.038;16.594;2024-03-02T00:12:10;27.75;;;18.75;;
85559;SDS011;76003;49.038;16.594;2024-03-02T00:14:55;26.52;;;17.73;;
85559;SDS011;76003;49.038;16.594;2024-03-02T00:17:35;30.88;;;18.65;;
85559;SDS011;76003;49.038;16.594;2024-03-02T00:20:16;26.38;;;17.75;;
85559;SDS011;76003;49.038;16.594;2024-03-02T00:23:04;31.85;;;19.67;;
85559;SDS011;76003;49.038;16.594;2024-03-02T00:25:47;28.23;;;19.17;;
85559;SDS011;76003;49.038;16.594;2024-03-02T00:28:30;27.90;;;18.83;;
85559;SDS011;76003;49.038;16.594;2024-03-02T00:31:14;28.83;;;18.05;;
85559;SDS011;76003;49.038;16.594;2024-03-02T00:33:44;29.77;;;19.35;;
85559;SDS011;76003;49.038;16.594;2024-03-02T00:36:31;29.35;;;20.25;;
85559;SDS011;76003;49.038;16.594;2024-03-02T00:38:57;32.03;;;18.98;;
85559;SDS011;76003;49.038;16.594;2024-03-02T00:44:13;30.48;;;18.92;;
85559;SDS011;76003;49.038;16.594;2024-03-02T00:47:00;28.98;;;18.88;;
85559;SDS011;76003;49.038;16.594;2024-03-02T00:49:41;34.40;;;19.70;;
85559;SDS011;76003;49.038;16.594;2024-03-02T00:52:22;32.40;;;18.73;;
85559;SDS011;76003;49.038;16.594;2024-03-02T00:55:04;34.03;;;20.00;;
85559;SDS011;76003;49.038;16.594;2024-03-02T00:57:45;32.63;;;18.77;;
85559;SDS011;76003;49.038;16.594;2024-03-02T01:00:26;35.70;;;22.35;;
85559;SDS011;76003;49.038;16.594;2024-03-02T01:03:07;33.28;;;20.63;;
85559;SDS011;76003;49.038;16.594;2024-03-02T01:05:48;32.60;;;20.50;;
85559;SDS011;76003;49.038;16.594;2024-03-02T01:08:27;32.28;;;18.73;;
85559;SDS011;76003;49.038;16.594;2024-03-02T01:11:13;31.92;;;19.33;;
85559;SDS011;76003;49.038;16.594;2024-03-02T01:13:39;36.05;;;20.08;;
85559;SDS011;76003;49.038;16.594;2024-03-02T01:16:25;32.03;;;18.45;;
85559;SDS011;76003;49.038;16.594;2024-03-02T01:18:56;31.80;;;19.70;;
85559;SDS011;76003;49.038;16.594;2024-03-02T01:21:42;32.88;;;19.00;;
85559;SDS011;76003;49.038;16.594;2024-03-02T01:24:23;32.67;;;18.63;;
85559;SDS011;76003;49.038;16.594;2024-03-02T01:27:03;35.40;;;21.05;;
85559;SDS011;76003;49.038;16.594;2024-03-02T01:32:10;31.88;;;19.95;;
85559;SDS011;76003;49.038;16.594;2024-03-02T01:35:52;31.85;;;18.83;;
85559;SDS011;76003;49.038;16.594;2024-03-02T01:42:42;36.00;;;18.42;;
85559;SDS011;76003;49.038;16.594;2024-03-02T01:45:08;28.00;;;17.70;;
85559;SDS011;76003;49.038;16.594;2024-03-02T01:48:11;33.63;;;20.70;;
85559;SDS011;76003;49.038;16.594;2024-03-02T01:50:37;33.20;;;19.60;;
85559;SDS011;76003;49.038;16.594;2024-03-02T01:53:23;32.03;;;20.58;;
85559;SDS011;76003;49.038;16.594;2024-03-02T01:55:49;33.67;;;19.17;;
85559;SDS011;76003;49.038;16.594;2024-03-02T01:58:36;31.02;;;19.27;;
85559;SDS011;76003;49.038;16.594;2024-03-02T02:03:56;27.02;;;17.23;;
85559;SDS011;76003;49.038;16.594;2024-03-02T02:06:37;31.90;;;18.30;;
85559;SDS011;76003;49.038;16.594;2024-03-02T02:09:03;30.25;;;18.25;;
85559;SDS011;76003;49.038;16.594;2024-03-02T02:12:45;32.15;;;18.77;;
85559;SDS011;76003;49.038;16.594;2024-03-02T02:15:26;25.75;;;16.33;;
85559;SDS011;76003;49.038;16.594;2024-03-02T02:18:07;30.05;;;18.38;;
85559;SDS011;76003;49.038;16.594;2024-03-02T02:20:34;29.75;;;18.33;;
85559;SDS011;76003;49.038;16.594;2024-03-02T02:23:20;33.10;;;19.20;;
85559;SDS011;76003;49.038;16.594;2024-03-02T02:25:46;28.48;;;17.70;;
85559;SDS011;76003;49.038;16.594;2024-03-02T02:28:32;29.38;;;17.08;;
85559;SDS011;76003;49.038;16.594;2024-03-02T02:30:58;36.90;;;17.90;;
85559;SDS011;76003;49.038;16.594;2024-03-02T02:33:46;29.35;;;17.48;;
85559;SDS011;76003;49.038;16.594;2024-03-02T02:36:11;28.95;;;17.15;;
85559;SDS011;76003;49.038;16.594;2024-03-02T02:38:42;29.92;;;17.17;;
85559;SDS011;76003;49.038;16.594;2024-03-02T02:41:11;29.27;;;16.90;;
85559;SDS011;76003;49.038;16.594;2024-03-02T02:43:36;29.73;;;18.00;;
85559;SDS011;76003;49.038;16.594;2024-03-02T02:46:17;34.50;;;20.60;;
85559;SDS011;76003;49.038;16.594;2024-03-02T02:51:38;29.15;;;17.38;;
85559;SDS011;76003;49.038;16.594;2024-03-02T02:54:18;33.08;;;17.13;;
85559;SDS011;76003;49.038;16.594;2024-03-02T02:56:44;32.92;;;19.05;;
85559;SDS011;76003;49.038;16.594;2024-03-02T02:59:30;37.08;;;20.75;;
85559;SDS011;76003;49.038;16.594;2024-03-02T03:01:56;36.78;;;20.67;;
85559;SDS011;76003;49.038;16.594;2024-03-02T03:04:43;38.25;;;19.52;;
85559;SDS011;76003;49.038;16.594;2024-03-02T03:07:08;44.28;;;23.20;;
85559;SDS011;76003;49.038;16.594;2024-03-02T03:09:55;46.60;;;25.00;;
85559;SDS011;76003;49.038;16.594;2024-03-02T03:12:35;57.50;;;28.23;;
85559;SDS011;76003;49.038;16.594;2024-03-02T03:17:56;48.78;;;24.67;;
85559;SDS011;76003;49.038;16.594;2024-03-02T03:20:37;52.78;;;29.02;;
85559;SDS011;76003;49.038;16.594;2024-03-02T03:23:03;50.05;;;26.80;;
85559;SDS011;76003;49.038;16.594;2024-03-02T03:26:48;55.53;;;31.83;;
85559;SDS011;76003;49.038;16.594;2024-03-02T03:29:29;48.95;;;28.02;;
85559;SDS011;76003;49.038;16.594;2024-03-02T03:31:54;46.67;;;24.75;;
85559;SDS011;76003;49.038;16.594;2024-03-02T03:34:41;54.22;;;25.45;;
85559;SDS011;76003;49.038;16.594;2024-03-02T03:37:07;49.00;;;29.05;;
85559;SDS011;76003;49.038;16.594;2024-03-02T03:39:53;44.08;;;24.02;;
85559;SDS011;76003;49.038;16.594;2024-03-02T03:42:19;39.63;;;21.58;;
85559;SDS011;76003;49.038;16.594;2024-03-02T03:45:05;45.60;;;25.75;;
85559;SDS011;76003;49.038;16.594;2024-03-02T03:47:32;37.88;;;19.25;;
85559;SDS011;76003;49.038;16.594;2024-03-02T03:49:57;43.63;;;24.02;;
85559;SDS011;76003;49.038;16.594;2024-03-02T03:52:23;44.80;;;23.08;;
85559;SDS011;76003;49.038;16.594;2024-03-02T03:54:48;43.13;;;22.85;;
85559;SDS011;76003;49.038;16.594;2024-03-02T03:57:14;43.58;;;24.08;;
85559;SDS011;76003;49.038;16.594;2024-03-02T03:59:54;41.78;;;23.17;;
85559;SDS011;76003;49.038;16.594;2024-03-02T04:02:34;45.58;;;23.88;;
85559;SDS011;76003;49.038;16.594;2024-03-02T04:07:56;45.65;;;21.50;;
85559;SDS011;76003;49.038;16.594;2024-03-02T04:10:36;66.38;;;27.02;;
85559;SDS011;76003;49.038;16.594;2024-03-02T04:13:02;70.25;;;30.23;;
85559;SDS011;76003;49.038;16.594;2024-03-02T04:15:49;69.60;;;29.20;;
85559;SDS011;76003;49.038;16.594;2024-03-02T04:18:14;61.28;;;27.88;;
85559;SDS011;76003;49.038;16.594;2024-03-02T04:21:01;50.72;;;26.27;;
85559;SDS011;76003;49.038;16.594;2024-03-02T04:23:27;56.65;;;27.35;;
85559;SDS011;76003;49.038;16.594;2024-03-02T04:26:13;54.00;;;25.73;;
85559;SDS011;76003;49.038;16.594;2024-03-02T04:28:54;38.15;;;20.55;;
85559;SDS011;76003;49.038;16.594;2024-03-02T04:31:35;33.58;;;18.90;;
85559;SDS011;76003;49.038;16.594;2024-03-02T04:36:56;44.97;;;22.60;;
85559;SDS011;76003;49.038;16.594;2024-03-02T04:39:37;62.88;;;26.70;;
85559;SDS011;76003;49.038;16.594;2024-03-02T04:42:17;56.40;;;27.33;;
85559;SDS011;76003;49.038;16.594;2024-03-02T04:44:58;55.35;;;29.40;;
85559;SDS011;76003;49.038;16.594;2024-03-02T04:50:04;51.85;;;25.65;;
85559;SDS011;76003;49.038;16.594;2024-03-02T04:52:51;60.95;;;29.55;;
85559;SDS011;76003;49.038;16.594;2024-03-02T04:55:17;47.03;;;24.58;;
85559;SDS011;76003;49.038;16.594;2024-03-02T04:58:35;39.17;;;19.80;;
85559;SDS011;76003;49.038;16.594;2024-03-02T05:01:02;39.80;;;20.95;;
85559;SDS011;76003;49.038;16.594;2024-03-02T05:03:49;41.00;;;25.20;;
85559;SDS011;76003;49.038;16.594;2024-03-02T05:06:29;41.50;;;21.77;;
85559;SDS011;76003;49.038;16.594;2024-03-02T05:09:10;42.30;;;21.90;;
85559;SDS011;76003;49.038;16.594;2024-03-02T05:11:50;47.28;;;26.38;;
85559;SDS011;76003;49.038;16.594;2024-03-02T05:14:49;57.00;;;28.17;;
85559;SDS011;76003;49.038;16.594;2024-03-02T05:20:10;50.30;;;25.67;;
85559;SDS011;76003;49.038;16.594;2024-03-02T05:22:51;50.97;;;26.10;;
85559;SDS011;76003;49.038;16.594;2024-03-02T05:25:17;55.42;;;27.17;;
85559;SDS011;76003;49.038;16.594;2024-03-02T05:28:03;77.18;;;33.33;;
85559;SDS011;76003;49.038;16.594;2024-03-02T05:30:30;59.25;;;28.35;;
85559;SDS011;76003;49.038;16.594;2024-03-02T05:33:16;58.30;;;27.23;;
85559;SDS011;76003;49.038;16.594;2024-03-02T05:35:43;64.53;;;27.65;;
85559;SDS011;76003;49.038;16.594;2024-03-02T05:38:30;57.92;;;27.40;;
85559;SDS011;76003;49.038;16.594;2024-03-02T05:41:11;54.20;;;27.45;;
85559;SDS011;76003;49.038;16.594;2024-03-02T05:46:32;51.15;;;24.92;;
85559;SDS011;76003;49.038;16.594;2024-03-02T05:49:13;48.30;;;22.38;;
85559;SDS011;76003;49.038;16.594;2024-03-02T05:51:53;45.10;;;25.92;;
85559;SDS011;76003;49.038;16.594;2024-03-02T05:54:34;37.85;;;22.38;;
85559;SDS011;76003;49.038;16.594;2024-03-02T05:57:14;34.95;;;19.77;;
85559;SDS011;76003;49.038;16.594;2024-03-02T05:59:58;29.80;;;19.52;;
85559;SDS011;76003;49.038;16.594;2024-03-02T06:02:45;60.10;;;32.10;;
85559;SDS011;76003;49.038;16.594;2024-03-02T06:05:11;33.75;;;20.35;;
85559;SDS011;76003;49.038;16.594;2024-03-02T06:07:58;34.38;;;21.60;;
85559;SDS011;76003;49.038;16.594;2024-03-02T06:10:25;44.83;;;22.45;;
85559;SDS011;76003;49.038;16.594;2024-03-02T06:13:11;36.50;;;21.95;;
85559;SDS011;76003;49.038;16.594;2024-03-02T06:18:33;24.13;;;16.08;;
85559;SDS011;76003;49.038;16.594;2024-03-02T06:21:13;41.75;;;22.20;;
85559;SDS011;76003;49.038;16.594;2024-03-02T06:26:35;52.10;;;25.38;;
85559;SDS011;76003;49.038;16.594;2024-03-02T06:29:15;46.50;;;23.55;;
85559;SDS011;76003;49.038;16.594;2024-03-02T06:31:56;49.33;;;28.23;;
85559;SDS011;76003;49.038;16.594;2024-03-02T06:34:37;49.88;;;25.17;;
85559;SDS011;76003;49.038;16.594;2024-03-02T06:37:18;50.20;;;26.45;;
85559;SDS011;76003;49.038;16.594;2024-03-02T06:42:24;46.47;;;23.45;;
85559;SDS011;76003;49.038;16.594;2024-03-02T06:45:11;43.20;;;23.05;;
85559;SDS011;76003;49.038;16.594;2024-03-02T06:47:37;35.70;;;19.02;;
85559;SDS011;76003;49.038;16.594;2024-03-02T06:50:23;37.97;;;19.80;;
85559;SDS011;76003;49.038;16.594;2024-03-02T06:52:49;32.00;;;20.60;;
85559;SDS011;76003;49.038;16.594;2024-03-02T06:55:35;31.27;;;18.20;;
85559;SDS011;76003;49.038;16.594;2024-03-02T06:58:16;28.52;;;18.63;;
85559;SDS011;76003;49.038;16.594;2024-03-02T07:00:56;29.13;;;16.88;;
85559;SDS011;76003;49.038;16.594;2024-03-02T07:03:36;34.20;;;17.63;;
85559;SDS011;76003;49.038;16.594;2024-03-02T07:08:57;29.98;;;16.70;;
85559;SDS011;76003;49.038;16.594;2024-03-02T07:11:23;30.02;;;17.02;;
85559;SDS011;76003;49.038;16.594;2024-03-02T07:15:05;29.17;;;16.73;;
85559;SDS011;76003;49.038;16.594;2024-03-02T07:17:31;30.48;;;17.45;;
85559;SDS011;76003;49.038;16.594;2024-03-02T07:20:35;29.75;;;16.55;;
85559;SDS011;76003;49.038;16.594;2024-03-02T07:23:01;30.25;;;17.25;;
85559;SDS011;76003;49.038;16.594;2024-03-02T07:26:04;31.65;;;19.10;;
85559;SDS011;76003;49.038;16.594;2024-03-02T07:28:30;30.52;;;18.58;;
85559;SDS011;76003;49.038;16.594;2024-03-02T07:31:18;32.03;;;18.35;;
85559;SDS011;76003;49.038;16.594;2024-03-02T07:36:39;33.13;;;19.30;;
85559;SDS011;76003;49.038;16.594;2024-03-02T07:39:21;29.92;;;17.73;;
85559;SDS011;76003;49.038;16.594;2024-03-02T07:42:02;27.65;;;16.65;;
85559;SDS011;76003;49.038;16.594;2024-03-02T07:44:45;30.08;;;16.92;;
85559;SDS011;76003;49.038;16.594;2024-03-02T07:47:26;27.35;;;14.65;;
85559;SDS011;76003;49.038;16.594;2024-03-02T07:52:32;30.75;;;15.60;;
85559;SDS011;76003;49.038;16.594;2024-03-02T07:56:15;27.08;;;16.13;;
85559;SDS011;76003;49.038;16.594;2024-03-02T07:58:48;21.40;;;14.50;;
85559;SDS011;76003;49.038;16.594;2024-03-02T08:01:50;23.42;;;13.73;;
85559;SDS011;76003;49.038;16.594;2024-03-02T08:04:16;21.48;;;13.65;;
85559;SDS011;76003;49.038;16.594;2024-03-02T08:07:03;24.67;;;15.23;;
85559;SDS011;76003;49.038;16.594;2024-03-02T08:09:29;24.33;;;14.07;;
85559;SDS011;76003;49.038;16.594;2024-03-02T08:12:32;25.23;;;16.52;;
85559;SDS011;76003;49.038;16.594;2024-03-02T08:15:58;23.33;;;13.82;;
85559;SDS011;76003;49.038;16.594;2024-03-02T08:19:23;21.95;;;13.63;;
85559;SDS011;76003;49.038;16.594;2024-03-02T08:22:49;21.75;;;12.68;;
85559;SDS011;76003;49.038;16.594;2024-03-02T08:26:14;29.00;;;13.75;;
85559;SDS011;76003;49.038;16.594;2024-03-02T08:28:40;22.65;;;13.48;;
85559;SDS011;76003;49.038;16.594;2024-03-02T08:32:22;24.80;;;14.20;;
85559;SDS011;76003;49.038;16.594;2024-03-02T08:34:48;21.15;;;13.00;;
85559;SDS011;76003;49.038;16.594;2024-03-02T08:37:51;26.25;;;13.57;;
85559;SDS011;76003;49.038;16.594;2024-03-02T08:40:17;24.35;;;14.40;;
85559;SDS011;76003;49.038;16.594;2024-03-02T08:43:03;23.15;;;13.68;;
85559;SDS011;76003;49.038;16.594;2024-03-02T08:45:29;25.73;;;13.38;;
85559;SDS011;76003;49.038;16.594;2024-03-02T08:48:16;24.40;;;14.40;;
85559;SDS011;76003;49.038;16.594;2024-03-02T08:50:56;23.27;;;14.15;;
85559;SDS011;76003;49.038;16.594;2024-03-02T08:53:37;20.67;;;13.02;;
85559;SDS011;76003;49.038;16.594;2024-03-02T08:56:04;23.83;;;13.18;;
85559;SDS011;76003;49.038;16.594;2024-03-02T08:59:47;22.30;;;13.98;;
85559;SDS011;76003;49.038;16.594;2024-03-02T09:03:12;20.98;;;14.50;;
85559;SDS011;76003;49.038;16.594;2024-03-02T09:05:53;20.52;;;14.48;;
85559;SDS011;76003;49.038;16.594;2024-03-02T09:08:33;22.73;;;14.40;;
85559;SDS011;76003;49.038;16.594;2024-03-02T09:11:02;24.50;;;13.80;;
85559;SDS011;76003;49.038;16.594;2024-03-02T09:13:49;22.88;;;14.52;;
85559;SDS011;76003;49.038;16.594;2024-03-02T09:16:15;23.73;;;15.43;;
85559;SDS011;76003;49.038;16.594;2024-03-02T09:19:02;22.13;;;14.80;;
85559;SDS011;76003;49.038;16.594;2024-03-02T09:21:28;23.55;;;14.13;;
85559;SDS011;76003;49.038;16.594;2024-03-02T09:24:33;20.15;;;12.50;;
85559;SDS011;76003;49.038;16.594;2024-03-02T09:27:13;20.67;;;14.98;;
85559;SDS011;76003;49.038;16.594;2024-03-02T09:29:54;22.88;;;14.13;;
85559;SDS011;76003;49.038;16.594;2024-03-02T09:32:20;21.88;;;13.82;;
85559;SDS011;76003;49.038;16.594;2024-03-02T09:35:01;22.45;;;13.80;;
85559;SDS011;76003;49.038;16.594;2024-03-02T09:38:26;22.33;;;13.65;;
85559;SDS011;76003;49.038;16.594;2024-03-02T09:41:51;19.83;;;13.25;;
85559;SDS011;76003;49.038;16.594;2024-03-02T09:45:21;20.58;;;13.27;;
85559;SDS011;76003;49.038;16.594;2024-03-02T09:48:48;23.15;;;14.40;;
85559;SDS011;76003;49.038;16.594;2024-03-02T09:51:14;23.92;;;14.98;;
85559;SDS011;76003;49.038;16.594;2024-03-02T09:54:01;22.55;;;13.18;;
85559;SDS011;76003;49.038;16.594;2024-03-02T09:56:27;24.88;;;14.10;;
85559;SDS011;76003;49.038;16.594;2024-03-02T09:59:14;23.05;;;14.38;;
85559;SDS011;76003;49.038;16.594;2024-03-02T10:01:55;22.70;;;14.00;;
85559;SDS011;76003;49.038;16.594;2024-03-02T10:05:01;26.42;;;15.90;;
85559;SDS011;76003;49.038;16.594;2024-03-02T10:07:49;24.90;;;15.30;;
85559;SDS011;76003;49.038;16.594;2024-03-02T10:10:39;28.08;;;16.25;;
85559;SDS011;76003;49.038;16.594;2024-03-02T10:13:21;23.73;;;13.93;;
85559;SDS011;76003;49.038;16.594;2024-03-02T10:15:50;25.17;;;15.68;;
85559;SDS011;76003;49.038;16.594;2024-03-02T10:18:53;24.63;;;15.40;;
85559;SDS011;76003;49.038;16.594;2024-03-02T10:22:19;22.10;;;14.43;;
85559;SDS011;76003;49.038;16.594;2024-03-02T10:25:48;28.80;;;15.57;;
85559;SDS011;76003;49.038;16.594;2024-03-02T10:28:14;24.75;;;14.55;;
85559;SDS011;76003;49.038;16.594;2024-03-02T10:31:02;25.80;;;15.98;;
85559;SDS011;76003;49.038;16.594;2024-03-02T10:33:28;29.77;;;17.75;;
85559;SDS011;76003;49.038;16.594;2024-03-02T10:36:32;27.02;;;17.83;;
85559;SDS011;76003;49.038;16.594;2024-03-02T10:39:02;28.48;;;16.35;;
85559;SDS011;76003;49.038;16.594;2024-03-02T10:42:09;26.60;;;14.82;;
85559;SDS011;76003;49.038;16.594;2024-03-02T10:45:34;24.48;;;14.00;;
85559;SDS011;76003;49.038;16.594;2024-03-02T10:49:00;22.65;;;14.95;;
85559;SDS011;76003;49.038;16.594;2024-03-02T10:51:28;25.95;;;15.60;;
85559;SDS011;76003;49.038;16.594;2024-03-02T10:54:33;24.60;;;15.38;;
85559;SDS011;76003;49.038;16.594;2024-03-02T10:58:01;22.50;;;14.95;;
85559;SDS011;76003;49.038;16.594;2024-03-02T11:01:32;31.95;;;21.65;;
85559;SDS011;76003;49.038;16.594;2024-03-02T11:03:58;27.52;;;15.68;;
85559;SDS011;76003;49.038;16.594;2024-03-02T11:06:49;29.00;;;16.30;;
85559;SDS011;76003;49.038;16.594;2024-03-02T11:09:20;25.48;;;16.73;;
85559;SDS011;76003;49.038;16.594;2024-03-02T11:12:38;25.33;;;15.20;;
85559;SDS011;76003;49.038;16.594;2024-03-02T11:15:10;29.17;;;22.33;;
85559;SDS011;76003;49.038;16.594;2024-03-02T11:18:00;25.85;;;17.40;;
85559;SDS011;76003;49.038;16.594;2024-03-02T11:21:25;26.65;;;17.05;;
85559;SDS011;76003;49.038;16.594;2024-03-02T11:24:51;30.13;;;17.75;;
85559;SDS011;76003;49.038;16.594;2024-03-02T11:28:17;30.50;;;16.33;;
85559;SDS011;76003;49.038;16.594;2024-03-02T11:34:35;30.75;;;16.05;;
85559;SDS011;76003;49.038;16.594;2024-03-02T11:37:38;26.27;;;14.73;;
85559;SDS011;76003;49.038;16.594;2024-03-02T11:40:04;27.40;;;16.95;;
85559;SDS011;76003;49.038;16.594;2024-03-02T11:42:51;27.13;;;16.05;;
85559;SDS011;76003;49.038;16.594;2024-03-02T11:45:32;28.45;;;16.83;;
85559;SDS011;76003;49.038;16.594;2024-03-02T11:48:14;28.52;;;17.30;;
85559;SDS011;76003;49.038;16.594;2024-03-02T11:53:28;25.40;;;16.05;;
85559;SDS011;76003;49.038;16.594;2024-03-02T11:55:57;23.25;;;14.93;;
85559;SDS011;76003;49.038;16.594;2024-03-02T11:59:00;27.92;;;16.70;;
85559;SDS011;76003;49.038;16.594;2024-03-02T12:02:26;25.33;;;14.98;;
85559;SDS011;76003;49.038;16.594;2024-03-02T12:05:52;26.67;;;15.15;;
85559;SDS011;76003;49.038;16.594;2024-03-02T12:09:18;28.63;;;14.95;;
85559;SDS011;76003;49.038;16.594;2024-03-02T12:11:44;27.40;;;15.48;;
85559;SDS011;76003;49.038;16.594;2024-03-02T12:14:31;28.15;;;16.67;;
85559;SDS011;76003;49.038;16.594;2024-03-02T12:17:15;28.42;;;17.75;;
85559;SDS011;76003;49.038;16.594;2024-03-02T12:19:41;26.55;;;15.80;;
85559;SDS011;76003;49.038;16.594;2024-03-02T12:22:44;26.75;;;15.07;;
85559;SDS011;76003;49.038;16.594;2024-03-02T12:25:25;28.75;;;15.90;;
85559;SDS011;76003;49.038;16.594;2024-03-02T12:28:30;24.90;;;15.32;;
85559;SDS011;76003;49.038;16.594;2024-03-02T12:30:56;29.33;;;16.10;;
85559;SDS011;76003;49.038;16.594;2024-03-02T12:34:38;24.98;;;15.88;;
85559;SDS011;76003;49.038;16.594;2024-03-02T12:37:05;29.98;;;18.55;;
85559;SDS011;76003;49.038;16.594;2024-03-02T12:40:49;28.15;;;20.70;;
85559;SDS011;76003;49.038;16.594;2024-03-02T12:44:15;22.55;;;15.23;;
85559;SDS011;76003;49.038;16.594;2024-03-02T12:46:40;24.90;;;15.15;;
85559;SDS011;76003;49.038;16.594;2024-03-02T12:49:27;26.50;;;17.42;;
85559;SDS011;76003;49.038;16.594;2024-03-02T12:52:08;25.52;;;16.38;;
85559;SDS011;76003;49.038;16.594;2024-03-02T12:54:38;27.27;;;18.13;;
85559;SDS011;76003;49.038;16.594;2024-03-02T12:58:20;27.67;;;15.48;;
85559;SDS011;76003;49.038;16.594;2024-03-02T13:00:48;26.20;;;15.40;;
85559;SDS011;76003;49.038;16.594;2024-03-02T13:03:35;24.23;;;15.70;;
85559;SDS011;76003;49.038;16.594;2024-03-02T13:06:03;24.63;;;17.17;;
85559;SDS011;76003;49.038;16.594;2024-03-02T13:08:48;23.17;;;14.23;;
85559;SDS011;76003;49.038;16.594;2024-03-02T13:11:49;26.58;;;14.45;;
85559;SDS011;76003;49.038;16.594;2024-03-02T13:14:32;27.60;;;18.00;;
85559;SDS011;76003;49.038;16.594;2024-03-02T13:17:13;28.13;;;15.40;;
85559;SDS011;76003;49.038;16.594;2024-03-02T13:19:57;25.55;;;15.93;;
85559;SDS011;76003;49.038;16.594;2024-03-02T13:22:25;24.42;;;14.70;;
85559;SDS011;76003;49.038;16.594;2024-03-02T13:25:12;23.73;;;14.95;;
85559;SDS011;76003;49.038;16.594;2024-03-02T13:27:38;24.60;;;14.70;;
85559;SDS011;76003;49.038;16.594;2024-03-02T13:30:18;27.05;;;15.73;;
85559;SDS011;76003;49.038;16.594;2024-03-02T13:32:59;26.42;;;14.23;;
85559;SDS011;76003;49.038;16.594;2024-03-02T13:35:32;21.90;;;13.43;;
85559;SDS011;76003;49.038;16.594;2024-03-02T13:38:19;23.20;;;14.40;;
85559;SDS011;76003;49.038;16.594;2024-03-02T13:40:46;21.55;;;13.13;;
85559;SDS011;76003;49.038;16.594;2024-03-02T13:43:38;24.25;;;17.40;;
85559;SDS011;76003;49.038;16.594;2024-03-02T13:46:04;19.95;;;13.55;;
85559;SDS011;76003;49.038;16.594;2024-03-02T13:49:46;23.90;;;15.25;;
85559;SDS011;76003;49.038;16.594;2024-03-02T13:53:13;22.58;;;13.15;;
85559;SDS011;76003;49.038;16.594;2024-03-02T13:56:39;22.50;;;12.30;;
85559;SDS011;76003;49.038;16.594;2024-03-02T13:59:06;22.02;;;13.00;;
85559;SDS011;76003;49.038;16.594;2024-03-02T14:01:53;18.10;;;10.95;;
85559;SDS011;76003;49.038;16.594;2024-03-02T14:05:19;23.08;;;11.95;;
85559;SDS011;76003;49.038;16.594;2024-03-02T14:08:44;18.27;;;12.30;;
85559;SDS011;76003;49.038;16.594;2024-03-02T14:12:10;16.67;;;10.38;;
85559;SDS011;76003;49.038;16.594;2024-03-02T14:15:37;18.77;;;11.38;;
85559;SDS011;76003;49.038;16.594;2024-03-02T14:18:05;18.52;;;10.98;;
85559;SDS011;76003;49.038;16.594;2024-03-02T14:20:51;19.77;;;12.70;;
85559;SDS011;76003;49.038;16.594;2024-03-02T14:23:18;16.77;;;10.55;;
85559;SDS011;76003;49.038;16.594;2024-03-02T14:26:06;17.15;;;11.40;;
85559;SDS011;76003;49.038;16.594;2024-03-02T14:28:32;15.10;;;9.55;;
85559;SDS011;76003;49.038;16.594;2024-03-02T14:30:57;13.10;;;7.95;;
85559;SDS011;76003;49.038;16.594;2024-03-02T14:33:27;13.07;;;9.05;;
85559;SDS011;76003;49.038;16.594;2024-03-02T14:36:14;13.63;;;8.30;;
85559;SDS011;76003;49.038;16.594;2024-03-02T14:38:55;12.70;;;8.07;;
85559;SDS011;76003;49.038;16.594;2024-03-02T14:41:36;12.07;;;9.05;;
85559;SDS011;76003;49.038;16.594;2024-03-02T14:44:17;12.43;;;7.78;;
85559;SDS011;76003;49.038;16.594;2024-03-02T14:46:58;14.20;;;8.40;;
85559;SDS011;76003;49.038;16.594;2024-03-02T14:49:39;10.80;;;8.00;;
85559;SDS011;76003;49.038;16.594;2024-03-02T14:52:20;13.40;;;7.85;;
85559;SDS011;76003;49.038;16.594;2024-03-02T14:54:47;12.90;;;8.73;;
85559;SDS011;76003;49.038;16.594;2024-03-02T14:57:33;12.80;;;8.43;;
85559;SDS011;76003;49.038;16.594;2024-03-02T14:59:59;15.00;;;8.65;;
85559;SDS011;76003;49.038;16.594;2024-03-02T15:02:45;11.75;;;7.70;;
85559;SDS011;76003;49.038;16.594;2024-03-02T15:05:26;12.77;;;8.48;;
85559;SDS011;76003;49.038;16.594;2024-03-02T15:08:06;11.93;;;8.07;;
85559;SDS011;76003;49.038;16.594;2024-03-02T15:10:33;11.75;;;7.60;;
85559;SDS011;76003;49.038;16.594;2024-03-02T15:13:19;12.70;;;8.07;;
85559;SDS011;76003;49.038;16.594;2024-03-02T15:18:40;10.77;;;7.93;;
85559;SDS011;76003;49.038;16.594;2024-03-02T15:24:01;12.40;;;7.70;;
85559;SDS011;76003;49.038;16.594;2024-03-02T15:26:26;11.73;;;7.68;;
85559;SDS011;76003;49.038;16.594;2024-03-02T15:29:27;11.07;;;7.85;;
85559;SDS011;76003;49.038;16.594;2024-03-02T15:31:55;10.75;;;8.55;;
85559;SDS011;76003;49.038;16.594;2024-03-02T15:34:40;10.95;;;7.90;;
85559;SDS011;76003;49.038;16.594;2024-03-02T15:37:06;14.00;;;8.52;;
85559;SDS011;76003;49.038;16.594;2024-03-02T15:39:52;12.07;;;7.28;;
85559;SDS011;76003;49.038;16.594;2024-03-02T15:42:33;13.82;;;8.15;;
85559;SDS011;76003;49.038;16.594;2024-03-02T15:45:14;13.60;;;8.93;;
85559;SDS011;76003;49.038;16.594;2024-03-02T15:48:00;12.00;;;7.68;;
85559;SDS011;76003;49.038;16.594;2024-03-02T15:51:26;13.20;;;8.05;;
85559;SDS011;76003;49.038;16.594;2024-03-02T15:54:52;11.60;;;8.30;;
85559;SDS011;76003;49.038;16.594;2024-03-02T15:58:18;13.32;;;8.50;;
85559;SDS011;76003;49.038;16.594;2024-03-02T16:01:10;13.23;;;9.73;;
85559;SDS011;76003;49.038;16.594;2024-03-02T16:06:16;14.55;;;9.73;;
85559;SDS011;76003;49.038;16.594;2024-03-02T16:09:02;14.65;;;9.88;;
85559;SDS011;76003;49.038;16.594;2024-03-02T16:11:45;15.35;;;9.60;;
85559;SDS011;76003;49.038;16.594;2024-03-02T16:14:11;16.95;;;10.30;;
85559;SDS011;76003;49.038;16.594;2024-03-02T16:16:59;17.75;;;12.25;;
85559;SDS011;76003;49.038;16.594;2024-03-02T16:19:25;14.88;;;10.00;;
85559;SDS011;76003;49.038;16.594;2024-03-02T16:22:12;15.80;;;13.23;;
85559;SDS011;76003;49.038;16.594;2024-03-02T16:24:52;18.73;;;11.43;;
85559;SDS011;76003;49.038;16.594;2024-03-02T16:27:18;16.35;;;10.77;;
85559;SDS011;76003;49.038;16.594;2024-03-02T16:31:00;15.60;;;8.52;;
85559;SDS011;76003;49.038;16.594;2024-03-02T16:34:26;17.58;;;11.35;;
85559;SDS011;76003;49.038;16.594;2024-03-02T16:37:51;17.95;;;12.00;;
85559;SDS011;76003;49.038;16.594;2024-03-02T16:41:17;18.10;;;10.98;;
85559;SDS011;76003;49.038;16.594;2024-03-02T16:44:44;13.40;;;9.65;;
85559;SDS011;76003;49.038;16.594;2024-03-02T16:47:27;16.10;;;11.30;;
85559;SDS011;76003;49.038;16.594;2024-03-02T16:49:53;15.32;;;11.00;;
85559;SDS011;76003;49.038;16.594;2024-03-02T16:52:39;16.80;;;10.38;;
85559;SDS011;76003;49.038;16.594;2024-03-02T16:55:05;15.60;;;10.77;;
85559;SDS011;76003;49.038;16.594;2024-03-02T16:57:52;17.27;;;11.30;;
85559;SDS011;76003;49.038;16.594;2024-03-02T17:02:58;20.58;;;11.90;;